createdAt,value
2018-09-30T00:01:35.450Z,7.86
2018-09-30T00:04:03.961Z,7.51
2018-09-30T00:06:32.575Z,7.16
2018-09-30T00:09:01.096Z,6.89
2018-09-30T00:11:29.857Z,6.95
2018-09-30T00:13:58.365Z,7.22
2018-09-30T00:16:26.903Z,7.53
2018-09-30T00:18:55.504Z,7.84
2018-09-30T00:21:24.185Z,7.99
2018-09-30T00:23:58.056Z,8.14
2018-09-30T00:26:31.816Z,8.29
2018-09-30T00:29:00.408Z,8.33
2018-09-30T00:31:28.994Z,8.15
2018-09-30T00:34:02.699Z,8.04
2018-09-30T00:36:31.220Z,8.06
2018-09-30T00:38:59.772Z,7.98
2018-09-30T00:41:28.338Z,7.85
2018-09-30T00:43:56.829Z,7.78
2018-09-30T00:46:25.420Z,7.54
2018-09-30T00:48:54.028Z,7.56
2018-09-30T00:51:22.558Z,7.81
2018-09-30T00:53:51.118Z,7.98
2018-09-30T00:56:20.720Z,8.17
2018-09-30T00:58:49.324Z,8.30
2018-09-30T01:01:17.957Z,8.31
2018-09-30T01:03:46.509Z,8.30
2018-09-30T01:06:15.064Z,8.19
2018-09-30T01:08:43.613Z,7.96
2018-09-30T01:11:12.197Z,7.90
2018-09-30T01:13:40.744Z,7.86
2018-09-30T01:16:09.643Z,7.75
2018-09-30T01:18:38.259Z,7.57
2018-09-30T01:21:07.420Z,7.48
2018-09-30T01:23:36.194Z,7.39
2018-09-30T01:26:04.997Z,7.54
2018-09-30T01:28:33.990Z,7.69
2018-09-30T01:31:02.493Z,7.82
2018-09-30T01:33:31.042Z,7.77
2018-09-30T01:35:59.619Z,7.89
2018-09-30T01:38:28.136Z,7.99
2018-09-30T01:40:56.741Z,8.05
2018-09-30T01:43:25.345Z,7.83
2018-09-30T01:45:53.884Z,7.72
2018-09-30T01:48:22.512Z,7.67
2018-09-30T01:50:51.049Z,7.62
2018-09-30T01:53:19.613Z,7.54
2018-09-30T01:55:48.201Z,7.36
2018-09-30T01:58:16.769Z,7.17
2018-09-30T02:00:45.334Z,7.32
2018-09-30T02:03:13.914Z,7.46
2018-09-30T02:05:42.449Z,7.59
2018-09-30T02:08:11.185Z,7.68
2018-09-30T02:10:39.750Z,7.82
2018-09-30T02:13:08.296Z,7.71
2018-09-30T02:15:36.865Z,7.76
2018-09-30T02:18:05.478Z,7.66
2018-09-30T02:20:34.038Z,7.45
2018-09-30T02:23:02.640Z,7.41
2018-09-30T02:25:31.373Z,7.27
2018-09-30T02:27:59.929Z,7.10
2018-09-30T02:30:28.453Z,6.79
2018-09-30T02:32:56.994Z,6.69
2018-09-30T02:35:25.561Z,6.95
2018-09-30T02:37:54.110Z,7.21
2018-09-30T02:40:22.658Z,7.30
2018-09-30T02:42:51.244Z,7.30
2018-09-30T02:45:19.845Z,7.32
2018-09-30T02:47:48.579Z,7.37
2018-09-30T02:50:17.239Z,7.33
2018-09-30T02:52:45.730Z,7.34
2018-09-30T02:55:14.303Z,7.21
2018-09-30T02:57:42.851Z,7.15
2018-09-30T03:00:11.834Z,7.16
2018-09-30T03:02:40.375Z,7.09
2018-09-30T03:05:09.088Z,6.80
2018-09-30T03:07:42.869Z,6.49
2018-09-30T03:10:11.515Z,6.54
2018-09-30T03:12:41.210Z,6.78
2018-09-30T03:15:10.014Z,6.99
2018-09-30T03:17:38.618Z,7.18
2018-09-30T03:20:07.409Z,7.26
2018-09-30T03:22:35.968Z,7.27
2018-09-30T03:25:05.392Z,7.24
2018-09-30T03:27:34.043Z,7.24
2018-09-30T03:30:02.954Z,7.07
2018-09-30T03:32:32.319Z,6.90
2018-09-30T03:35:00.985Z,6.86
2018-09-30T03:37:29.669Z,6.76
2018-09-30T03:39:58.303Z,6.31
2018-09-30T03:42:26.903Z,5.76
2018-09-30T03:44:56.102Z,5.87
2018-09-30T03:47:24.809Z,6.09
2018-09-30T03:49:53.479Z,6.39
2018-09-30T03:52:23.468Z,6.66
2018-09-30T03:54:52.534Z,6.57
2018-09-30T03:57:21.502Z,6.68
2018-09-30T03:59:50.105Z,6.88
2018-09-30T04:02:19.507Z,6.94
2018-09-30T04:04:48.101Z,6.97
2018-09-30T04:07:16.782Z,6.83
2018-09-30T04:09:45.402Z,6.84
2018-09-30T04:12:14.030Z,6.84
2018-09-30T04:14:42.572Z,6.70
2018-09-30T04:17:11.254Z,6.52
2018-09-30T04:19:40.040Z,6.46
2018-09-30T04:22:08.613Z,6.46
2018-09-30T04:24:37.165Z,6.44
2018-09-30T04:27:05.828Z,6.56
2018-09-30T04:29:34.425Z,6.71
2018-09-30T04:32:03.012Z,6.81
2018-09-30T04:34:31.642Z,6.89
2018-09-30T04:37:00.194Z,6.97
2018-09-30T04:39:28.810Z,7.03
2018-09-30T04:41:57.627Z,6.93
2018-09-30T04:44:26.212Z,6.88
2018-09-30T04:46:54.890Z,6.93
2018-09-30T04:49:24.074Z,6.39
2018-09-30T04:51:52.692Z,5.80
2018-09-30T04:54:22.592Z,5.44
2018-09-30T04:56:52.007Z,5.48
2018-09-30T04:59:20.950Z,5.91
2018-09-30T05:01:49.646Z,6.21
2018-09-30T05:04:18.287Z,6.28
2018-09-30T05:06:46.893Z,6.35
2018-09-30T05:09:16.273Z,6.48
2018-09-30T05:11:46.198Z,6.57
2018-09-30T05:14:14.973Z,6.72
2018-09-30T05:16:43.583Z,6.71
2018-09-30T05:19:13.085Z,6.51
2018-09-30T05:21:41.809Z,6.46
2018-09-30T05:24:10.403Z,6.13
2018-09-30T05:26:39.423Z,5.68
2018-09-30T05:29:08.513Z,5.36
2018-09-30T05:31:37.148Z,5.28
2018-09-30T05:34:06.522Z,5.55
2018-09-30T05:36:35.177Z,5.93
2018-09-30T05:39:04.946Z,6.21
2018-09-30T05:41:33.520Z,6.39
2018-09-30T05:44:02.113Z,6.42
2018-09-30T05:46:30.815Z,6.49
2018-09-30T05:48:59.514Z,6.52
2018-09-30T05:51:28.040Z,6.63
2018-09-30T05:53:57.505Z,6.51
2018-09-30T05:56:26.491Z,6.50
2018-09-30T05:58:56.010Z,6.44
2018-09-30T06:01:25.420Z,6.12
2018-09-30T06:03:54.081Z,5.77
2018-09-30T06:06:22.680Z,5.53
2018-09-30T06:08:52.060Z,5.72
2018-09-30T06:11:20.672Z,6.11
2018-09-30T06:13:50.349Z,6.45
2018-09-30T06:16:18.874Z,6.61
2018-09-30T06:18:47.554Z,6.70
2018-09-30T06:21:16.820Z,6.88
2018-09-30T06:23:45.472Z,7.07
2018-09-30T06:26:14.054Z,7.08
2018-09-30T06:28:42.621Z,6.99
2018-09-30T06:31:11.927Z,6.97
2018-09-30T06:33:41.191Z,6.98
2018-09-30T06:36:09.745Z,6.55
2018-09-30T06:38:38.411Z,5.95
2018-09-30T06:41:07.115Z,5.53
2018-09-30T06:43:35.696Z,5.64
2018-09-30T06:46:04.228Z,6.05
2018-09-30T06:48:32.771Z,6.42
2018-09-30T06:51:01.486Z,6.68
2018-09-30T06:53:30.224Z,6.89
2018-09-30T06:55:59.607Z,7.09
2018-09-30T06:58:28.378Z,7.30
2018-09-30T07:00:57.257Z,7.50
2018-09-30T07:03:25.872Z,7.79
2018-09-30T07:05:55.097Z,8.99
2018-09-30T07:08:23.831Z,9.20
2018-09-30T07:10:52.562Z,9.13
2018-09-30T07:13:21.248Z,9.01
2018-09-30T07:15:50.174Z,8.96
2018-09-30T07:18:18.728Z,9.12
2018-09-30T07:20:47.358Z,9.25
2018-09-30T07:23:16.199Z,9.57
2018-09-30T07:25:45.343Z,9.97
2018-09-30T07:28:20.007Z,10.63
2018-09-30T07:30:48.843Z,11.00
2018-09-30T07:33:17.972Z,11.54
2018-09-30T07:35:46.537Z,12.28
2018-09-30T07:38:15.155Z,12.53
2018-09-30T07:40:43.643Z,12.93
2018-09-30T07:43:12.337Z,13.39
2018-09-30T07:45:41.003Z,13.59
2018-09-30T07:48:09.593Z,13.32
2018-09-30T07:50:38.423Z,12.95
2018-09-30T07:53:07.052Z,12.66
2018-09-30T07:55:35.814Z,12.68
2018-09-30T07:58:04.367Z,12.60
2018-09-30T08:00:33.055Z,12.58
2018-09-30T08:03:01.713Z,12.87
2018-09-30T08:05:30.299Z,13.02
2018-09-30T08:07:58.969Z,13.06
2018-09-30T08:10:27.675Z,13.09
2018-09-30T08:12:56.298Z,13.18
2018-09-30T08:15:24.975Z,13.32
2018-09-30T08:17:53.622Z,13.58
2018-09-30T08:20:22.604Z,13.93
2018-09-30T08:22:51.201Z,13.96
2018-09-30T08:25:19.866Z,13.80
2018-09-30T08:27:49.198Z,13.88
2018-09-30T08:30:17.891Z,14.19
2018-09-30T08:32:46.590Z,14.24
2018-09-30T08:35:15.189Z,14.55
2018-09-30T08:42:27.799Z,15.35
2018-09-30T08:44:56.449Z,15.69
2018-09-30T08:50:37.987Z,15.74
2018-09-30T08:53:06.844Z,15.72
2018-09-30T08:55:35.651Z,15.58
2018-09-30T08:58:04.568Z,15.54
2018-09-30T09:00:33.252Z,15.64
2018-09-30T09:03:01.995Z,15.74
2018-09-30T09:05:31.961Z,15.83
2018-09-30T09:08:01.958Z,15.82
2018-09-30T09:10:31.407Z,16.00
2018-09-30T09:13:00.048Z,16.13
2018-09-30T09:15:29.092Z,16.16
2018-09-30T09:17:57.825Z,16.57
2018-09-30T09:20:27.188Z,16.61
2018-09-30T09:22:56.608Z,16.52
2018-09-30T09:25:25.412Z,16.66
2018-09-30T09:27:53.959Z,17.09
2018-09-30T09:30:22.807Z,17.15
2018-09-30T09:32:51.576Z,17.05
2018-09-30T09:35:20.260Z,17.05
2018-09-30T09:37:48.957Z,17.15
2018-09-30T09:40:17.709Z,17.52
2018-09-30T09:42:46.418Z,17.28
2018-09-30T09:45:15.898Z,17.48
2018-09-30T09:47:44.609Z,17.83
2018-09-30T09:50:13.262Z,17.90
2018-09-30T09:52:43.143Z,17.85
2018-09-30T09:55:11.768Z,17.47
2018-09-30T09:57:40.495Z,17.38
2018-09-30T10:00:10.314Z,17.44
2018-09-30T10:02:40.183Z,17.41
2018-09-30T10:05:09.092Z,17.23
2018-09-30T10:07:37.700Z,17.34
2018-09-30T10:10:06.467Z,17.40
2018-09-30T10:12:35.649Z,17.72
2018-09-30T10:15:04.973Z,17.94
2018-09-30T10:17:33.763Z,18.00
2018-09-30T10:20:02.502Z,18.01
2018-09-30T10:22:31.204Z,18.09
2018-09-30T10:24:59.732Z,18.20
2018-09-30T10:27:28.283Z,18.49
2018-09-30T10:29:57.153Z,18.90
2018-09-30T10:32:26.328Z,19.03
2018-09-30T10:34:55.159Z,19.05
2018-09-30T10:37:23.872Z,19.15
2018-09-30T10:39:53.024Z,19.10
2018-09-30T10:42:21.612Z,19.10
2018-09-30T10:44:51.567Z,18.87
2018-09-30T10:47:20.406Z,18.50
2018-09-30T10:49:49.807Z,18.65
2018-09-30T10:52:18.393Z,18.81
2018-09-30T10:54:47.008Z,18.76
2018-09-30T10:57:15.555Z,18.87
2018-09-30T10:59:45.074Z,18.78
2018-09-30T11:02:13.787Z,18.94
2018-09-30T11:04:43.211Z,19.13
2018-09-30T11:07:11.793Z,19.36
2018-09-30T11:09:40.547Z,19.38
2018-09-30T11:12:09.077Z,19.57
2018-09-30T11:14:37.821Z,19.62
2018-09-30T11:17:06.896Z,19.23
2018-09-30T11:19:35.517Z,19.07
2018-09-30T11:22:04.695Z,19.37
2018-09-30T11:24:33.792Z,19.44
2018-09-30T11:27:02.608Z,19.46
2018-09-30T11:29:31.172Z,19.60
2018-09-30T11:31:59.920Z,19.64
2018-09-30T11:34:28.432Z,19.68
2018-09-30T11:36:57.387Z,20.02
2018-09-30T11:39:26.736Z,20.17
2018-09-30T11:41:55.485Z,19.94
2018-09-30T11:44:24.098Z,19.78
2018-09-30T11:46:53.416Z,19.53
2018-09-30T11:49:22.334Z,19.45
2018-09-30T11:51:51.867Z,19.62
2018-09-30T11:54:20.434Z,19.47
2018-09-30T11:56:49.083Z,19.60
2018-09-30T11:59:17.596Z,19.49
2018-09-30T12:01:46.309Z,19.60
2018-09-30T12:04:14.908Z,19.59
2018-09-30T12:06:43.877Z,19.49
2018-09-30T12:09:12.474Z,19.39
2018-09-30T12:11:42.036Z,19.34
2018-09-30T12:14:10.619Z,19.22
2018-09-30T12:16:39.299Z,19.13
2018-09-30T12:19:08.001Z,19.05
2018-09-30T12:21:37.473Z,19.18
2018-09-30T12:24:06.071Z,19.38
2018-09-30T12:26:34.924Z,19.29
2018-09-30T12:29:03.607Z,19.15
2018-09-30T12:31:32.387Z,19.20
2018-09-30T12:34:01.946Z,19.17
2018-09-30T12:36:30.574Z,19.31
2018-09-30T12:38:59.286Z,19.46
2018-09-30T12:41:28.732Z,19.51
2018-09-30T12:43:57.434Z,19.61
2018-09-30T12:46:25.991Z,19.56
2018-09-30T12:48:54.856Z,19.49
2018-09-30T12:51:23.508Z,19.48
2018-09-30T12:53:52.990Z,19.27
2018-09-30T12:56:21.861Z,19.04
2018-09-30T12:58:50.487Z,19.09
2018-09-30T13:01:19.102Z,18.92
2018-09-30T13:03:47.837Z,18.72
2018-09-30T13:06:17.173Z,18.67
2018-09-30T13:08:45.758Z,18.87
2018-09-30T13:11:14.356Z,19.14
2018-09-30T13:13:43.007Z,19.30
2018-09-30T13:16:11.598Z,19.29
2018-09-30T13:18:40.208Z,19.22
2018-09-30T13:21:08.861Z,19.08
2018-09-30T13:23:37.682Z,19.08
2018-09-30T13:26:06.436Z,19.01
2018-09-30T13:28:34.960Z,18.95
2018-09-30T13:31:03.545Z,19.06
2018-09-30T13:33:32.323Z,19.12
2018-09-30T13:36:00.893Z,19.22
2018-09-30T13:38:29.542Z,19.07
2018-09-30T13:40:58.354Z,18.90
2018-09-30T13:43:27.037Z,18.67
2018-09-30T13:45:55.638Z,18.51
2018-09-30T13:48:24.176Z,18.52
2018-09-30T13:50:52.783Z,18.43
2018-09-30T13:53:21.402Z,18.35
2018-09-30T13:55:50.012Z,18.38
2018-09-30T13:58:19.349Z,18.39
2018-09-30T14:00:48.676Z,18.50
2018-09-30T14:03:17.818Z,18.43
2018-09-30T14:05:46.356Z,18.32
2018-09-30T14:08:15.102Z,18.38
2018-09-30T14:10:45.288Z,18.33
2018-09-30T14:13:14.262Z,18.33
2018-09-30T14:15:43.057Z,18.29
2018-09-30T14:18:11.628Z,18.30
2018-09-30T14:20:40.285Z,18.16
2018-09-30T14:23:09.065Z,18.05
2018-09-30T14:25:37.616Z,18.10
2018-09-30T14:28:07.474Z,18.40
2018-09-30T14:30:37.361Z,18.20
2018-09-30T14:33:06.367Z,18.02
2018-09-30T14:35:35.161Z,18.15
2018-09-30T14:38:03.752Z,18.04
2018-09-30T14:40:32.488Z,17.90
2018-09-30T14:43:01.112Z,17.86
2018-09-30T14:45:30.026Z,17.92
2018-09-30T14:47:59.059Z,17.98
2018-09-30T14:50:27.596Z,17.93
2018-09-30T14:52:56.315Z,17.86
2018-09-30T14:55:25.117Z,17.88
2018-09-30T14:57:53.818Z,17.84
2018-09-30T15:00:22.466Z,17.78
2018-09-30T15:02:51.270Z,17.97
2018-09-30T15:05:20.467Z,18.17
2018-09-30T15:07:49.117Z,18.23
2018-09-30T15:10:17.688Z,17.97
2018-09-30T15:12:46.365Z,17.70
2018-09-30T15:15:15.112Z,17.48
2018-09-30T15:17:44.461Z,17.32
2018-09-30T15:20:13.710Z,17.34
2018-09-30T15:22:42.303Z,17.39
2018-09-30T15:25:11.067Z,17.45
2018-09-30T15:27:39.711Z,17.20
2018-09-30T15:30:09.166Z,16.92
2018-09-30T15:32:37.728Z,16.65
2018-09-30T15:35:06.440Z,16.55
2018-09-30T15:37:35.067Z,16.45
2018-09-30T15:40:04.348Z,16.58
2018-09-30T15:42:33.007Z,16.71
2018-09-30T15:45:01.769Z,16.56
2018-09-30T15:47:30.650Z,16.58
2018-09-30T15:49:59.461Z,16.64
2018-09-30T15:52:28.146Z,16.72
2018-09-30T15:54:57.622Z,16.76
2018-09-30T15:57:26.304Z,16.72
2018-09-30T15:59:54.902Z,16.47
2018-09-30T16:02:23.667Z,16.52
2018-09-30T16:04:52.318Z,16.73
2018-09-30T16:07:21.028Z,16.61
2018-09-30T16:09:50.452Z,16.65
2018-09-30T16:12:19.151Z,16.42
2018-09-30T16:14:47.810Z,16.15
2018-09-30T16:17:16.878Z,15.85
2018-09-30T16:19:45.614Z,15.86
2018-09-30T16:22:14.713Z,15.93
2018-09-30T16:24:44.787Z,16.00
2018-09-30T16:27:13.338Z,15.85
2018-09-30T16:29:41.920Z,15.86
2018-09-30T16:32:11.233Z,15.78
2018-09-30T16:34:39.933Z,15.64
2018-09-30T16:37:08.797Z,15.53
2018-09-30T16:39:38.522Z,15.33
2018-09-30T16:42:07.233Z,15.28
2018-09-30T16:44:35.943Z,15.17
2018-09-30T16:47:04.605Z,14.97
2018-09-30T16:49:33.287Z,15.05
2018-09-30T16:52:01.871Z,15.17
2018-09-30T16:54:30.606Z,15.27
2018-09-30T16:56:59.320Z,15.30
2018-09-30T16:59:28.425Z,15.23
2018-09-30T17:01:57.873Z,15.22
2018-09-30T17:04:26.481Z,15.32
2018-09-30T17:06:55.180Z,15.47
2018-09-30T17:09:24.625Z,15.57
2018-09-30T17:11:53.371Z,15.41
2018-09-30T17:14:22.081Z,15.23
2018-09-30T17:16:50.775Z,15.03
2018-09-30T17:19:20.017Z,14.73
2018-09-30T17:21:48.876Z,14.43
2018-09-30T17:24:17.573Z,14.13
2018-09-30T17:26:46.956Z,13.96
2018-09-30T17:29:15.609Z,14.01
2018-09-30T17:31:44.922Z,13.95
2018-09-30T17:34:14.513Z,13.87
2018-09-30T17:36:43.908Z,13.69
2018-09-30T17:39:13.411Z,13.67
2018-09-30T17:41:42.062Z,13.62
2018-09-30T17:44:11.022Z,13.43
2018-09-30T17:46:39.891Z,13.41
2018-09-30T17:49:08.792Z,13.40
2018-09-30T17:51:38.136Z,13.36
2018-09-30T17:54:07.068Z,13.33
2018-09-30T17:56:35.693Z,13.51
2018-09-30T17:59:04.462Z,13.81
2018-09-30T18:01:33.892Z,13.94
2018-09-30T18:04:03.216Z,14.16
2018-09-30T18:06:32.586Z,14.14
2018-09-30T18:09:01.951Z,13.95
2018-09-30T18:11:31.106Z,13.60
2018-09-30T18:13:59.757Z,13.31
2018-09-30T18:16:28.332Z,13.38
2018-09-30T18:18:57.269Z,13.19
2018-09-30T18:21:25.793Z,13.14
2018-09-30T18:23:54.401Z,13.08
2018-09-30T18:26:23.437Z,13.36
2018-09-30T18:28:52.667Z,13.52
2018-09-30T18:31:21.356Z,13.46
2018-09-30T18:33:50.343Z,13.31
2018-09-30T18:36:19.083Z,13.40
2018-09-30T18:38:47.700Z,13.59
2018-09-30T18:41:17.002Z,13.91
2018-09-30T18:43:46.625Z,14.13
2018-09-30T18:46:15.522Z,14.36
2018-09-30T18:48:45.291Z,14.28
2018-09-30T18:51:15.263Z,13.98
2018-09-30T18:53:45.240Z,13.75
2018-09-30T18:56:15.329Z,13.53
2018-09-30T18:58:45.253Z,13.42
2018-09-30T19:01:15.252Z,13.35
2018-09-30T19:08:38.448Z,13.45
2018-09-30T19:11:07.356Z,13.52
2018-09-30T19:13:36.319Z,13.52
2018-09-30T19:16:05.292Z,13.53
2018-09-30T19:18:34.122Z,13.58
2018-09-30T19:21:03.055Z,13.76
2018-09-30T19:23:31.905Z,13.83
2018-09-30T19:26:00.605Z,13.89
2018-09-30T19:28:29.170Z,13.88
2018-09-30T19:30:57.808Z,13.88
2018-09-30T19:33:27.125Z,13.91
2018-09-30T19:35:55.872Z,13.92
2018-09-30T19:38:24.502Z,14.04
2018-09-30T19:40:53.226Z,14.21
2018-09-30T19:43:21.978Z,14.45
2018-09-30T19:45:50.528Z,14.61
2018-09-30T19:48:19.278Z,14.81
2018-09-30T19:50:47.896Z,14.85
2018-09-30T19:53:17.486Z,14.64
2018-09-30T19:55:46.268Z,14.50
2018-09-30T19:58:15.146Z,14.29
2018-09-30T20:00:43.938Z,14.21
2018-09-30T20:03:12.696Z,14.15
2018-09-30T20:05:41.972Z,14.02
2018-09-30T20:08:10.602Z,14.16
2018-09-30T20:10:40.047Z,14.02
2018-09-30T20:13:09.192Z,13.76
2018-09-30T20:15:37.857Z,13.57
2018-09-30T20:18:06.601Z,13.64
2018-09-30T20:20:35.353Z,13.42
2018-09-30T20:23:04.103Z,13.32
2018-09-30T20:25:32.708Z,13.36
2018-09-30T20:28:02.256Z,13.36
2018-09-30T20:30:31.156Z,13.38
2018-09-30T20:32:59.754Z,13.51
2018-09-30T20:35:28.611Z,13.38
2018-09-30T20:37:57.227Z,13.26
2018-09-30T20:40:26.047Z,13.12
2018-09-30T20:42:54.718Z,13.09
2018-09-30T20:45:23.542Z,13.01
2018-09-30T20:47:52.313Z,13.15
2018-09-30T20:50:21.499Z,13.31
2018-09-30T20:52:50.226Z,13.22
2018-09-30T20:55:19.736Z,13.34
2018-09-30T20:57:48.405Z,13.48
2018-09-30T21:00:17.017Z,13.52
2018-09-30T21:02:45.747Z,13.51
2018-09-30T21:05:30.345Z,13.47
2018-09-30T21:07:59.689Z,13.39
2018-09-30T21:10:28.350Z,13.53
2018-09-30T21:12:57.700Z,13.48
2018-09-30T21:15:26.946Z,13.67
2018-09-30T21:17:56.196Z,13.94
2018-09-30T21:20:24.896Z,13.86
2018-09-30T21:22:53.606Z,13.62
2018-09-30T21:25:22.160Z,13.42
2018-09-30T21:27:50.965Z,13.33
2018-09-30T21:30:20.360Z,13.19
2018-09-30T21:32:49.645Z,13.00
2018-09-30T21:35:18.374Z,12.86
2018-09-30T21:37:47.040Z,12.72
2018-09-30T21:40:17.269Z,12.57
2018-09-30T21:42:46.630Z,12.51
2018-09-30T21:45:15.615Z,12.53
2018-09-30T21:47:44.284Z,12.47
2018-09-30T21:50:12.882Z,12.38
2018-09-30T21:52:47.843Z,12.49
2018-09-30T21:55:16.475Z,12.52
2018-09-30T21:57:46.535Z,12.78
2018-09-30T22:00:19.679Z,13.00
2018-09-30T22:02:49.131Z,13.12
2018-09-30T22:05:17.762Z,13.19
2018-09-30T22:07:46.492Z,13.39
2018-09-30T22:10:16.442Z,13.30
2018-09-30T22:12:45.487Z,13.05
2018-09-30T22:15:14.216Z,12.89
2018-09-30T22:17:42.975Z,12.59
2018-09-30T22:20:11.522Z,12.38
2018-09-30T22:22:40.451Z,12.18
2018-09-30T22:25:09.759Z,12.12
2018-09-30T22:27:38.379Z,12.19
2018-09-30T22:30:07.163Z,12.28
2018-09-30T22:32:36.414Z,12.32
2018-09-30T22:35:05.120Z,12.27
2018-09-30T22:37:33.760Z,12.34
2018-09-30T22:40:02.380Z,12.37
2018-09-30T22:42:31.531Z,12.65
2018-09-30T22:45:00.017Z,12.84
2018-09-30T22:47:28.596Z,13.13
2018-09-30T22:49:58.109Z,13.10
2018-09-30T22:52:26.855Z,12.88
2018-09-30T22:54:55.545Z,12.66
2018-09-30T22:57:25.101Z,12.58
2018-09-30T22:59:54.255Z,12.46
2018-09-30T23:02:22.945Z,12.31
2018-09-30T23:04:51.661Z,12.23
2018-09-30T23:07:20.959Z,12.20
2018-09-30T23:09:50.519Z,12.13
2018-09-30T23:12:19.158Z,12.17
2018-09-30T23:14:47.769Z,12.33
2018-09-30T23:17:16.564Z,12.33
2018-09-30T23:19:45.634Z,12.39
2018-09-30T23:22:15.054Z,12.55
2018-09-30T23:24:43.884Z,12.61
2018-09-30T23:27:12.461Z,12.92
2018-09-30T23:29:41.045Z,13.19
2018-09-30T23:32:09.676Z,13.31
2018-09-30T23:34:38.342Z,13.58
2018-09-30T23:37:07.159Z,13.32
2018-09-30T23:39:35.945Z,13.06
2018-09-30T23:42:04.537Z,12.64
2018-09-30T23:44:33.116Z,12.46
2018-09-30T23:47:01.659Z,12.55
2018-09-30T23:49:30.298Z,12.55
2018-09-30T23:51:59.666Z,12.43
2018-09-30T23:54:28.330Z,12.42
2018-09-30T23:56:57.544Z,12.43
2018-09-30T23:59:26.156Z,12.28
